createdAt,value
2023-01-28T00:04:31.283Z,0.0
2023-01-28T00:09:32.269Z,0.0
2023-01-28T00:14:33.145Z,0.0
2023-01-28T00:19:34.103Z,0.0
2023-01-28T00:24:34.996Z,0.0
2023-01-28T00:29:35.880Z,0.0
2023-01-28T00:34:36.876Z,0.0
2023-01-28T00:39:37.823Z,0.0
2023-01-28T00:44:38.735Z,0.0
2023-01-28T00:49:39.695Z,0.0
2023-01-28T00:54:40.587Z,0.0
2023-01-28T00:59:41.627Z,0.0
2023-01-28T01:04:42.516Z,0.0
2023-01-28T01:09:43.798Z,0.0
2023-01-28T01:14:44.716Z,0.0
2023-01-28T01:19:45.737Z,0.0
2023-01-28T01:24:46.668Z,0.0
2023-01-28T01:29:47.618Z,0.0
2023-01-28T01:34:48.589Z,0.0
2023-01-28T01:39:49.510Z,0.0
2023-01-28T01:44:50.407Z,0.0
2023-01-28T01:49:51.325Z,0.0
2023-01-28T01:54:52.224Z,0.0
2023-01-28T01:59:53.161Z,0.0
2023-01-28T02:04:54.075Z,0.0
2023-01-28T02:09:54.969Z,0.0
2023-01-28T02:14:55.910Z,0.0
2023-01-28T02:19:56.883Z,0.0
2023-01-28T02:24:57.796Z,0.0
2023-01-28T02:29:58.767Z,0.0
2023-01-28T02:34:59.710Z,0.0
2023-01-28T02:40:00.732Z,0.0
2023-01-28T02:45:01.807Z,0.0
2023-01-28T02:50:02.766Z,0.0
2023-01-28T02:55:03.697Z,0.0
2023-01-28T03:00:04.632Z,0.0
2023-01-28T03:05:05.563Z,0.0
2023-01-28T03:10:06.516Z,0.0
2023-01-28T03:15:07.441Z,0.0
2023-01-28T03:20:08.695Z,0.0
2023-01-28T03:25:09.907Z,0.0
2023-01-28T03:30:10.922Z,0.0
2023-01-28T03:35:11.946Z,0.0
2023-01-28T03:40:12.926Z,0.0
2023-01-28T03:45:14.178Z,0.0
2023-01-28T03:50:15.290Z,0.0
2023-01-28T03:55:16.555Z,0.0
2023-01-28T04:00:17.618Z,0.0
2023-01-28T04:05:18.563Z,0.0
2023-01-28T04:10:19.510Z,0.0
2023-01-28T04:15:20.452Z,0.0
2023-01-28T04:20:21.421Z,0.0
2023-01-28T04:25:22.397Z,0.0
2023-01-28T04:30:23.389Z,0.0
2023-01-28T04:35:24.333Z,0.0
2023-01-28T04:40:25.261Z,0.0
2023-01-28T04:45:26.253Z,0.0
2023-01-28T04:50:27.191Z,0.0
2023-01-28T04:55:28.149Z,0.0
2023-01-28T05:00:29.080Z,0.0
2023-01-28T05:05:30.002Z,0.0
2023-01-28T05:10:30.956Z,0.0
2023-01-28T05:15:31.907Z,0.0
2023-01-28T05:20:32.913Z,0.0
2023-01-28T05:25:33.827Z,0.0
2023-01-28T05:30:34.897Z,0.0
2023-01-28T05:35:35.928Z,0.0
2023-01-28T05:40:36.841Z,0.0
2023-01-28T05:45:37.847Z,0.0
2023-01-28T05:50:38.802Z,0.0
2023-01-28T05:55:39.736Z,0.0
2023-01-28T06:00:40.658Z,0.0
2023-01-28T06:05:41.673Z,0.0
2023-01-28T06:10:42.635Z,0.0
2023-01-28T06:15:43.590Z,0.0
2023-01-28T06:20:44.536Z,0.0
2023-01-28T06:25:45.445Z,0.4148
2023-01-28T06:30:46.400Z,0.4148
2023-01-28T06:35:47.379Z,2.50815
2023-01-28T06:40:48.299Z,3.85445
2023-01-28T06:45:49.207Z,8.50185
2023-01-28T06:50:50.186Z,11.19445
2023-01-28T06:55:51.135Z,12.90965
2023-01-28T07:00:52.076Z,31.5544
2023-01-28T07:05:53.054Z,40.05625
2023-01-28T07:10:53.997Z,52.65215
2023-01-28T07:15:54.915Z,62.5003
2023-01-28T07:20:55.981Z,74.4877
2023-01-28T07:25:56.899Z,89.72105
2023-01-28T07:30:57.955Z,102.07735
2023-01-28T07:35:58.939Z,119.08105
2023-01-28T07:40:59.896Z,132.5992
2023-01-28T07:46:00.799Z,152.11105
2023-01-28T07:51:01.769Z,168.9303
2023-01-28T07:56:02.724Z,188.9955
2023-01-28T08:01:04.306Z,209.9088
2023-01-28T08:06:05.343Z,234.6214
2023-01-28T08:11:06.270Z,241.53735
2023-01-28T08:16:07.223Z,259.14955
2023-01-28T08:21:08.671Z,272.24365
2023-01-28T08:26:09.890Z,278.0529
2023-01-28T08:31:11.246Z,295.48065
2023-01-28T08:36:12.303Z,316.89215
2023-01-28T08:41:13.212Z,350.4755
2023-01-28T08:46:14.190Z,367.66365
2023-01-28T08:51:15.142Z,371.5181
2023-01-28T08:56:16.041Z,375.4277
2023-01-28T09:01:17.000Z,387.59955
2023-01-28T09:06:17.928Z,381.4214
2023-01-28T09:11:18.871Z,386.8066
2023-01-28T09:16:19.894Z,410.5418
2023-01-28T09:21:20.943Z,450.5429
2023-01-28T09:26:21.860Z,473.5403
2023-01-28T09:31:22.946Z,487.6118
2023-01-28T09:36:23.964Z,502.771
2023-01-28T09:41:24.909Z,526.21145
2023-01-28T09:46:25.849Z,615.26885
2023-01-28T09:51:26.861Z,648.16955
2023-01-28T09:56:27.828Z,652.07915
2023-01-28T10:01:28.748Z,629.0266
2023-01-28T10:06:29.652Z,633.674
2023-01-28T10:11:30.580Z,648.9625
2023-01-28T10:16:31.517Z,607.2462
2023-01-28T10:21:32.484Z,561.9892
2023-01-28T10:26:33.429Z,562.2288
2023-01-28T10:31:34.532Z,565.10585
2023-01-28T10:36:35.728Z,511.347
2023-01-28T10:41:39.992Z,484.3107
2023-01-28T10:46:46.398Z,468.59815
2023-01-28T10:51:47.348Z,487.1326
2023-01-28T10:56:48.369Z,469.57555
2023-01-28T11:01:49.334Z,476.8604
2023-01-28T11:06:50.254Z,475.1452
2023-01-28T11:11:51.242Z,497.95815
2023-01-28T11:16:52.171Z,538.43845
2023-01-28T11:21:53.222Z,546.7007
2023-01-28T11:26:54.149Z,522.5966
2023-01-28T11:31:55.075Z,523.38955
2023-01-28T11:36:56.029Z,544.43215
2023-01-28T11:41:57.007Z,556.7143
2023-01-28T11:46:57.899Z,574.0869
2023-01-28T11:51:58.864Z,565.4006
2023-01-28T11:56:59.772Z,545.7043
2023-01-28T12:02:00.778Z,531.94655
2023-01-28T12:07:01.880Z,511.0884
2023-01-28T12:12:04.866Z,469.9806
2023-01-28T12:17:06.047Z,433.4099
2023-01-28T12:22:07.029Z,423.56175
2023-01-28T12:27:07.956Z,416.09245
2023-01-28T12:32:09.077Z,384.3536
2023-01-28T12:37:10.273Z,365.94845
2023-01-28T12:42:11.240Z,347.6726
2023-01-28T12:47:12.194Z,363.4593
2023-01-28T12:52:13.219Z,380.90605
2023-01-28T12:57:14.174Z,480.4391
2023-01-28T13:02:15.138Z,576.228
2023-01-28T13:07:16.197Z,623.25535
2023-01-28T13:12:17.147Z,657.52135
2023-01-28T13:17:18.073Z,703.2024
2023-01-28T13:22:19.065Z,735.42045
2023-01-28T13:27:19.953Z,845.89305
2023-01-28T13:32:20.912Z,774.5373
2023-01-28T13:37:21.859Z,692.87505
2023-01-28T13:42:22.807Z,633.1758
2023-01-28T13:47:23.774Z,722.10575
2023-01-28T13:52:24.692Z,708.88235
2023-01-28T13:57:25.603Z,715.37425
2023-01-28T14:02:26.547Z,622.25895
2023-01-28T14:07:27.468Z,526.80095
2023-01-28T14:12:28.386Z,533.93935
2023-01-28T14:17:29.337Z,598.8565
2023-01-28T14:22:30.315Z,518.94375
2023-01-28T14:27:31.259Z,399.75055
2023-01-28T14:32:32.216Z,465.0556
2023-01-28T14:37:33.141Z,502.6797
2023-01-28T14:42:34.084Z,444.38375
2023-01-28T14:47:35.038Z,334.04415
2023-01-28T14:52:35.999Z,258.5049
2023-01-28T14:57:36.938Z,193.84635
2023-01-28T15:02:37.960Z,143.70235
2023-01-28T15:07:38.919Z,105.3423
2023-01-28T15:12:39.861Z,81.66225
2023-01-28T15:17:40.799Z,67.35115
2023-01-28T15:22:41.761Z,57.6133
2023-01-28T15:27:42.688Z,43.9107
2023-01-28T15:32:43.628Z,31.3148
2023-01-28T15:37:44.555Z,27.09145
2023-01-28T15:42:45.507Z,22.07515
2023-01-28T15:47:46.561Z,14.3111
2023-01-28T15:52:47.552Z,6.91595
2023-01-28T15:57:48.513Z,3.3184
2023-01-28T16:02:49.447Z,2.13325
2023-01-28T16:07:50.389Z,2.50815
2023-01-28T16:12:51.333Z,0.4148
2023-01-28T16:17:52.294Z,0.0
2023-01-28T16:22:53.300Z,0.4148
2023-01-28T16:27:54.245Z,0.0
2023-01-28T16:32:55.196Z,0.0
2023-01-28T16:37:56.143Z,0.0
2023-01-28T16:42:57.102Z,0.0
2023-01-28T16:47:58.124Z,0.0
2023-01-28T16:52:59.094Z,0.0
2023-01-28T16:58:00.016Z,0.0
2023-01-28T17:03:01.001Z,0.0
2023-01-28T17:08:02.102Z,0.0
2023-01-28T17:13:03.046Z,0.0
2023-01-28T17:18:03.981Z,0.0
2023-01-28T17:23:05.075Z,0.0
2023-01-28T17:28:06.086Z,0.0
2023-01-28T17:33:07.063Z,0.0
2023-01-28T17:38:07.994Z,0.0
2023-01-28T17:43:09.326Z,0.0
2023-01-28T17:48:10.524Z,0.0
2023-01-28T17:53:12.013Z,0.0
2023-01-28T17:58:13.739Z,0.0
2023-01-28T18:03:14.695Z,0.0
2023-01-28T18:08:15.772Z,0.0
2023-01-28T18:13:16.927Z,0.0
2023-01-28T18:18:17.908Z,0.0
2023-01-28T18:23:19.453Z,0.0
2023-01-28T18:28:20.902Z,0.0
2023-01-28T18:33:22.312Z,0.0
2023-01-28T18:38:24.021Z,0.0
2023-01-28T18:43:25.432Z,0.0
2023-01-28T18:48:26.607Z,0.0
2023-01-28T18:53:27.669Z,0.0
2023-01-28T18:58:28.612Z,0.0
2023-01-28T19:03:30.040Z,0.0
2023-01-28T19:08:31.136Z,0.0
2023-01-28T19:13:32.120Z,0.0
2023-01-28T19:18:33.166Z,0.0
2023-01-28T19:23:48.889Z,0.0
2023-01-28T19:28:50.783Z,0.0
2023-01-28T19:33:51.910Z,0.0
2023-01-28T19:38:52.841Z,0.0
2023-01-28T19:43:53.877Z,0.0
2023-01-28T19:48:54.776Z,0.0
2023-01-28T19:53:56.339Z,0.0
2023-01-28T19:58:57.620Z,0.0
2023-01-28T20:03:59.434Z,0.0
2023-01-28T20:09:00.704Z,0.0
2023-01-28T20:14:02.003Z,0.0
2023-01-28T20:19:03.307Z,0.0
2023-01-28T20:24:04.731Z,0.0
2023-01-28T20:29:11.618Z,0.0
2023-01-28T20:34:12.666Z,0.0
2023-01-28T20:39:13.752Z,0.0
2023-01-28T20:44:15.161Z,0.0
2023-01-28T20:49:16.123Z,0.0
2023-01-28T20:54:17.749Z,0.0
2023-01-28T20:59:18.696Z,0.0
2023-01-28T21:04:19.898Z,0.0
2023-01-28T21:09:20.969Z,0.0
2023-01-28T21:14:21.935Z,0.0
2023-01-28T21:19:22.879Z,0.0
2023-01-28T21:24:23.880Z,0.0
2023-01-28T21:29:24.852Z,0.0
2023-01-28T21:34:25.773Z,0.0
2023-01-28T21:39:26.728Z,0.0
2023-01-28T21:44:27.683Z,0.0
2023-01-28T21:49:28.631Z,0.0
2023-01-28T21:54:29.553Z,0.0
2023-01-28T21:59:30.533Z,0.0
2023-01-28T22:04:31.578Z,0.0
2023-01-28T22:09:32.640Z,0.0
2023-01-28T22:14:33.567Z,0.0
2023-01-28T22:19:34.562Z,0.0
2023-01-28T22:24:35.644Z,0.0
2023-01-28T22:29:36.657Z,0.0
2023-01-28T22:34:39.680Z,0.0
2023-01-28T22:39:40.821Z,0.0
2023-01-28T22:44:41.752Z,0.0
2023-01-28T22:49:42.701Z,0.0
2023-01-28T22:54:43.609Z,0.0
2023-01-28T22:59:59.333Z,0.0
2023-01-28T23:05:01.595Z,0.0
2023-01-28T23:10:02.776Z,0.0
2023-01-28T23:15:03.697Z,0.0
2023-01-28T23:20:04.647Z,0.0
2023-01-28T23:25:05.593Z,0.0
2023-01-28T23:30:06.891Z,0.0
2023-01-28T23:35:08.021Z,0.0
2023-01-28T23:40:09.190Z,0.0
2023-01-28T23:45:10.489Z,0.0
2023-01-28T23:50:11.662Z,0.0
2023-01-28T23:55:12.631Z,0.0
